sensor_id;sensor_type;location;lat;lon;timestamp;P1;durP1;ratioP1;P2;durP2;ratioP2
69126;SDS011;56688;50.234;19.292;2023-12-20T00:00:22;6.00;;;3.30;;
69126;SDS011;56688;50.234;19.292;2023-12-20T00:02:49;5.40;;;3.10;;
69126;SDS011;56688;50.234;19.292;2023-12-20T00:05:16;4.80;;;2.90;;
69126;SDS011;56688;50.234;19.292;2023-12-20T00:07:43;5.20;;;2.70;;
69126;SDS011;56688;50.234;19.292;2023-12-20T00:10:11;5.10;;;3.10;;
69126;SDS011;56688;50.234;19.292;2023-12-20T00:12:39;4.90;;;2.90;;
69126;SDS011;56688;50.234;19.292;2023-12-20T00:15:07;6.10;;;3.20;;
69126;SDS011;56688;50.234;19.292;2023-12-20T00:17:34;6.40;;;3.20;;
69126;SDS011;56688;50.234;19.292;2023-12-20T00:20:02;6.30;;;3.20;;
69126;SDS011;56688;50.234;19.292;2023-12-20T00:22:29;4.60;;;3.00;;
69126;SDS011;56688;50.234;19.292;2023-12-20T00:24:56;7.20;;;3.20;;
69126;SDS011;56688;50.234;19.292;2023-12-20T00:27:23;3.50;;;2.40;;
69126;SDS011;56688;50.234;19.292;2023-12-20T00:29:50;4.70;;;2.90;;
69126;SDS011;56688;50.234;19.292;2023-12-20T00:32:17;4.90;;;2.70;;
69126;SDS011;56688;50.234;19.292;2023-12-20T00:34:44;5.10;;;2.80;;
69126;SDS011;56688;50.234;19.292;2023-12-20T00:37:11;5.50;;;3.00;;
69126;SDS011;56688;50.234;19.292;2023-12-20T00:39:38;6.30;;;3.10;;
69126;SDS011;56688;50.234;19.292;2023-12-20T00:42:05;5.70;;;3.20;;
69126;SDS011;56688;50.234;19.292;2023-12-20T00:44:32;4.60;;;2.70;;
69126;SDS011;56688;50.234;19.292;2023-12-20T00:46:59;6.60;;;3.10;;
69126;SDS011;56688;50.234;19.292;2023-12-20T00:49:25;3.80;;;2.40;;
69126;SDS011;56688;50.234;19.292;2023-12-20T00:51:53;4.50;;;2.70;;
69126;SDS011;56688;50.234;19.292;2023-12-20T00:54:20;4.10;;;2.50;;
69126;SDS011;56688;50.234;19.292;2023-12-20T00:56:47;5.20;;;3.10;;
69126;SDS011;56688;50.234;19.292;2023-12-20T00:59:13;5.20;;;3.20;;
69126;SDS011;56688;50.234;19.292;2023-12-20T01:01:41;3.10;;;2.10;;
69126;SDS011;56688;50.234;19.292;2023-12-20T01:04:08;4.50;;;2.80;;
69126;SDS011;56688;50.234;19.292;2023-12-20T01:06:36;6.10;;;3.10;;
69126;SDS011;56688;50.234;19.292;2023-12-20T01:09:03;4.40;;;2.90;;
69126;SDS011;56688;50.234;19.292;2023-12-20T01:11:30;6.80;;;3.30;;
69126;SDS011;56688;50.234;19.292;2023-12-20T01:13:57;5.50;;;2.80;;
69126;SDS011;56688;50.234;19.292;2023-12-20T01:16:24;5.40;;;2.70;;
69126;SDS011;56688;50.234;19.292;2023-12-20T01:18:51;4.00;;;2.50;;
69126;SDS011;56688;50.234;19.292;2023-12-20T01:21:18;4.20;;;2.40;;
69126;SDS011;56688;50.234;19.292;2023-12-20T01:23:45;5.90;;;2.70;;
69126;SDS011;56688;50.234;19.292;2023-12-20T01:26:11;3.10;;;2.20;;
69126;SDS011;56688;50.234;19.292;2023-12-20T01:28:38;4.80;;;2.60;;
69126;SDS011;56688;50.234;19.292;2023-12-20T01:31:05;3.50;;;2.40;;
69126;SDS011;56688;50.234;19.292;2023-12-20T01:33:33;4.40;;;2.70;;
69126;SDS011;56688;50.234;19.292;2023-12-20T01:36:00;5.30;;;2.80;;
69126;SDS011;56688;50.234;19.292;2023-12-20T01:38:27;3.50;;;2.60;;
69126;SDS011;56688;50.234;19.292;2023-12-20T01:40:54;7.20;;;3.00;;
69126;SDS011;56688;50.234;19.292;2023-12-20T01:43:21;7.10;;;2.80;;
69126;SDS011;56688;50.234;19.292;2023-12-20T01:45:50;4.30;;;2.50;;
69126;SDS011;56688;50.234;19.292;2023-12-20T01:48:18;4.40;;;2.40;;
69126;SDS011;56688;50.234;19.292;2023-12-20T01:50:46;4.90;;;2.80;;
69126;SDS011;56688;50.234;19.292;2023-12-20T01:53:13;5.30;;;3.10;;
69126;SDS011;56688;50.234;19.292;2023-12-20T01:55:41;4.00;;;2.80;;
69126;SDS011;56688;50.234;19.292;2023-12-20T01:58:08;4.60;;;2.80;;
69126;SDS011;56688;50.234;19.292;2023-12-20T02:00:37;5.00;;;3.00;;
69126;SDS011;56688;50.234;19.292;2023-12-20T02:03:04;5.30;;;3.00;;
69126;SDS011;56688;50.234;19.292;2023-12-20T02:05:32;5.90;;;3.10;;
69126;SDS011;56688;50.234;19.292;2023-12-20T02:08:00;5.10;;;3.00;;
69126;SDS011;56688;50.234;19.292;2023-12-20T02:10:28;3.10;;;2.50;;
69126;SDS011;56688;50.234;19.292;2023-12-20T02:12:55;5.50;;;2.70;;
69126;SDS011;56688;50.234;19.292;2023-12-20T02:15:25;6.80;;;3.40;;
69126;SDS011;56688;50.234;19.292;2023-12-20T02:17:52;5.70;;;3.00;;
69126;SDS011;56688;50.234;19.292;2023-12-20T02:20:21;7.30;;;2.90;;
69126;SDS011;56688;50.234;19.292;2023-12-20T02:22:48;4.30;;;2.70;;
69126;SDS011;56688;50.234;19.292;2023-12-20T02:25:14;4.60;;;2.90;;
69126;SDS011;56688;50.234;19.292;2023-12-20T02:27:42;4.20;;;3.00;;
69126;SDS011;56688;50.234;19.292;2023-12-20T02:30:10;5.40;;;2.80;;
69126;SDS011;56688;50.234;19.292;2023-12-20T02:32:38;5.30;;;3.20;;
69126;SDS011;56688;50.234;19.292;2023-12-20T02:35:05;3.30;;;2.60;;
69126;SDS011;56688;50.234;19.292;2023-12-20T02:37:32;9.30;;;3.30;;
69126;SDS011;56688;50.234;19.292;2023-12-20T02:39:59;3.80;;;2.80;;
69126;SDS011;56688;50.234;19.292;2023-12-20T02:42:26;3.90;;;3.10;;
69126;SDS011;56688;50.234;19.292;2023-12-20T02:44:53;6.10;;;3.20;;
69126;SDS011;56688;50.234;19.292;2023-12-20T02:47:20;4.20;;;3.10;;
69126;SDS011;56688;50.234;19.292;2023-12-20T02:49:47;6.80;;;3.50;;
69126;SDS011;56688;50.234;19.292;2023-12-20T02:52:15;5.30;;;3.30;;
69126;SDS011;56688;50.234;19.292;2023-12-20T02:54:42;5.30;;;3.10;;
69126;SDS011;56688;50.234;19.292;2023-12-20T02:57:09;5.10;;;2.80;;
69126;SDS011;56688;50.234;19.292;2023-12-20T03:02:10;4.40;;;3.10;;
69126;SDS011;56688;50.234;19.292;2023-12-20T03:04:38;6.00;;;3.40;;
69126;SDS011;56688;50.234;19.292;2023-12-20T03:07:05;5.20;;;3.30;;
69126;SDS011;56688;50.234;19.292;2023-12-20T03:09:32;4.60;;;3.10;;
69126;SDS011;56688;50.234;19.292;2023-12-20T03:12:19;5.10;;;3.10;;
69126;SDS011;56688;50.234;19.292;2023-12-20T03:14:48;5.30;;;3.50;;
69126;SDS011;56688;50.234;19.292;2023-12-20T03:17:16;5.30;;;3.40;;
69126;SDS011;56688;50.234;19.292;2023-12-20T03:19:42;4.50;;;3.00;;
69126;SDS011;56688;50.234;19.292;2023-12-20T03:22:10;3.90;;;3.00;;
69126;SDS011;56688;50.234;19.292;2023-12-20T03:24:37;5.10;;;3.60;;
69126;SDS011;56688;50.234;19.292;2023-12-20T03:27:04;6.30;;;3.60;;
69126;SDS011;56688;50.234;19.292;2023-12-20T03:29:31;7.80;;;3.90;;
69126;SDS011;56688;50.234;19.292;2023-12-20T03:31:58;6.70;;;3.80;;
69126;SDS011;56688;50.234;19.292;2023-12-20T03:34:26;5.40;;;3.10;;
69126;SDS011;56688;50.234;19.292;2023-12-20T03:36:53;5.10;;;3.70;;
69126;SDS011;56688;50.234;19.292;2023-12-20T03:39:20;7.00;;;4.20;;
69126;SDS011;56688;50.234;19.292;2023-12-20T03:41:47;6.90;;;3.80;;
69126;SDS011;56688;50.234;19.292;2023-12-20T03:44:14;7.50;;;4.20;;
69126;SDS011;56688;50.234;19.292;2023-12-20T03:46:41;7.00;;;4.00;;
69126;SDS011;56688;50.234;19.292;2023-12-20T03:49:08;6.10;;;3.70;;
69126;SDS011;56688;50.234;19.292;2023-12-20T03:51:35;4.80;;;3.60;;
69126;SDS011;56688;50.234;19.292;2023-12-20T03:54:04;7.00;;;3.90;;
69126;SDS011;56688;50.234;19.292;2023-12-20T03:56:31;9.10;;;4.40;;
69126;SDS011;56688;50.234;19.292;2023-12-20T03:58:58;7.20;;;4.30;;
69126;SDS011;56688;50.234;19.292;2023-12-20T04:01:25;7.10;;;4.70;;
69126;SDS011;56688;50.234;19.292;2023-12-20T04:03:52;9.30;;;4.60;;
69126;SDS011;56688;50.234;19.292;2023-12-20T04:06:19;8.50;;;5.10;;
69126;SDS011;56688;50.234;19.292;2023-12-20T04:08:46;10.00;;;5.00;;
69126;SDS011;56688;50.234;19.292;2023-12-20T04:11:15;9.50;;;5.70;;
69126;SDS011;56688;50.234;19.292;2023-12-20T04:13:42;10.30;;;6.10;;
69126;SDS011;56688;50.234;19.292;2023-12-20T04:16:09;9.70;;;5.60;;
69126;SDS011;56688;50.234;19.292;2023-12-20T04:18:36;11.60;;;5.90;;
69126;SDS011;56688;50.234;19.292;2023-12-20T04:21:03;11.80;;;6.00;;
69126;SDS011;56688;50.234;19.292;2023-12-20T04:23:30;10.60;;;7.30;;
69126;SDS011;56688;50.234;19.292;2023-12-20T04:25:57;12.00;;;7.20;;
69126;SDS011;56688;50.234;19.292;2023-12-20T04:28:26;13.00;;;6.10;;
69126;SDS011;56688;50.234;19.292;2023-12-20T04:30:53;10.00;;;6.20;;
69126;SDS011;56688;50.234;19.292;2023-12-20T04:33:21;10.10;;;6.60;;
69126;SDS011;56688;50.234;19.292;2023-12-20T04:35:49;14.40;;;7.70;;
69126;SDS011;56688;50.234;19.292;2023-12-20T04:38:16;12.80;;;6.80;;
69126;SDS011;56688;50.234;19.292;2023-12-20T04:40:43;15.40;;;7.40;;
69126;SDS011;56688;50.234;19.292;2023-12-20T04:43:09;10.70;;;6.70;;
69126;SDS011;56688;50.234;19.292;2023-12-20T04:45:36;14.20;;;8.00;;
69126;SDS011;56688;50.234;19.292;2023-12-20T04:48:03;11.10;;;7.00;;
69126;SDS011;56688;50.234;19.292;2023-12-20T04:50:31;16.00;;;8.70;;
69126;SDS011;56688;50.234;19.292;2023-12-20T04:52:58;12.00;;;7.50;;
69126;SDS011;56688;50.234;19.292;2023-12-20T04:55:25;13.50;;;7.70;;
69126;SDS011;56688;50.234;19.292;2023-12-20T04:57:52;14.10;;;9.30;;
69126;SDS011;56688;50.234;19.292;2023-12-20T05:00:19;13.80;;;8.40;;
69126;SDS011;56688;50.234;19.292;2023-12-20T05:02:46;14.20;;;8.70;;
69126;SDS011;56688;50.234;19.292;2023-12-20T05:05:13;17.20;;;8.00;;
69126;SDS011;56688;50.234;19.292;2023-12-20T05:07:42;13.40;;;7.00;;
69126;SDS011;56688;50.234;19.292;2023-12-20T05:10:09;12.70;;;8.80;;
69126;SDS011;56688;50.234;19.292;2023-12-20T05:12:36;12.50;;;7.30;;
69126;SDS011;56688;50.234;19.292;2023-12-20T05:15:04;11.00;;;6.50;;
69126;SDS011;56688;50.234;19.292;2023-12-20T05:17:32;14.20;;;9.00;;
69126;SDS011;56688;50.234;19.292;2023-12-20T05:19:59;14.90;;;9.10;;
69126;SDS011;56688;50.234;19.292;2023-12-20T05:22:26;16.50;;;9.20;;
69126;SDS011;56688;50.234;19.292;2023-12-20T05:24:54;12.60;;;8.30;;
69126;SDS011;56688;50.234;19.292;2023-12-20T05:27:21;15.60;;;8.70;;
69126;SDS011;56688;50.234;19.292;2023-12-20T05:29:48;11.00;;;7.30;;
69126;SDS011;56688;50.234;19.292;2023-12-20T05:32:16;12.80;;;8.40;;
69126;SDS011;56688;50.234;19.292;2023-12-20T05:34:43;13.20;;;8.20;;
69126;SDS011;56688;50.234;19.292;2023-12-20T05:37:10;9.20;;;6.00;;
69126;SDS011;56688;50.234;19.292;2023-12-20T05:39:38;12.70;;;7.70;;
69126;SDS011;56688;50.234;19.292;2023-12-20T05:42:05;11.30;;;7.50;;
69126;SDS011;56688;50.234;19.292;2023-12-20T05:44:32;14.60;;;7.80;;
69126;SDS011;56688;50.234;19.292;2023-12-20T05:46:59;13.80;;;8.20;;
69126;SDS011;56688;50.234;19.292;2023-12-20T05:49:26;11.20;;;6.20;;
69126;SDS011;56688;50.234;19.292;2023-12-20T05:51:53;12.20;;;8.50;;
69126;SDS011;56688;50.234;19.292;2023-12-20T05:54:20;15.30;;;9.10;;
69126;SDS011;56688;50.234;19.292;2023-12-20T05:56:48;23.10;;;12.20;;
69126;SDS011;56688;50.234;19.292;2023-12-20T05:59:15;19.30;;;11.20;;
69126;SDS011;56688;50.234;19.292;2023-12-20T06:01:42;20.50;;;11.50;;
69126;SDS011;56688;50.234;19.292;2023-12-20T06:04:09;18.20;;;9.90;;
69126;SDS011;56688;50.234;19.292;2023-12-20T06:06:40;15.60;;;9.50;;
69126;SDS011;56688;50.234;19.292;2023-12-20T06:09:09;18.40;;;10.70;;
69126;SDS011;56688;50.234;19.292;2023-12-20T06:11:36;16.90;;;9.30;;
69126;SDS011;56688;50.234;19.292;2023-12-20T06:14:03;14.90;;;10.30;;
69126;SDS011;56688;50.234;19.292;2023-12-20T06:16:30;18.40;;;9.50;;
69126;SDS011;56688;50.234;19.292;2023-12-20T06:18:57;14.80;;;9.20;;
69126;SDS011;56688;50.234;19.292;2023-12-20T06:21:24;12.60;;;8.20;;
69126;SDS011;56688;50.234;19.292;2023-12-20T06:23:51;11.70;;;7.80;;
69126;SDS011;56688;50.234;19.292;2023-12-20T06:26:18;18.10;;;8.90;;
69126;SDS011;56688;50.234;19.292;2023-12-20T06:28:45;12.30;;;7.90;;
69126;SDS011;56688;50.234;19.292;2023-12-20T06:31:12;13.70;;;8.50;;
69126;SDS011;56688;50.234;19.292;2023-12-20T06:33:39;15.00;;;8.90;;
69126;SDS011;56688;50.234;19.292;2023-12-20T06:36:10;16.10;;;10.40;;
69126;SDS011;56688;50.234;19.292;2023-12-20T06:38:38;16.90;;;9.00;;
69126;SDS011;56688;50.234;19.292;2023-12-20T06:41:05;17.40;;;9.50;;
69126;SDS011;56688;50.234;19.292;2023-12-20T06:43:32;13.80;;;9.10;;
69126;SDS011;56688;50.234;19.292;2023-12-20T06:46:15;11.40;;;7.90;;
69126;SDS011;56688;50.234;19.292;2023-12-20T06:48:42;15.40;;;8.70;;
69126;SDS011;56688;50.234;19.292;2023-12-20T06:51:14;14.80;;;8.60;;
69126;SDS011;56688;50.234;19.292;2023-12-20T06:53:42;12.40;;;7.30;;
69126;SDS011;56688;50.234;19.292;2023-12-20T06:56:10;13.50;;;8.30;;
69126;SDS011;56688;50.234;19.292;2023-12-20T06:58:43;14.70;;;8.00;;
69126;SDS011;56688;50.234;19.292;2023-12-20T07:01:11;15.10;;;8.40;;
69126;SDS011;56688;50.234;19.292;2023-12-20T07:03:39;12.70;;;7.20;;
69126;SDS011;56688;50.234;19.292;2023-12-20T07:06:07;14.00;;;9.20;;
69126;SDS011;56688;50.234;19.292;2023-12-20T07:08:35;15.10;;;8.40;;
69126;SDS011;56688;50.234;19.292;2023-12-20T07:11:03;13.90;;;7.50;;
69126;SDS011;56688;50.234;19.292;2023-12-20T07:13:30;20.70;;;9.40;;
69126;SDS011;56688;50.234;19.292;2023-12-20T07:15:57;14.60;;;9.30;;
69126;SDS011;56688;50.234;19.292;2023-12-20T07:18:24;13.10;;;8.40;;
69126;SDS011;56688;50.234;19.292;2023-12-20T07:20:51;13.60;;;7.90;;
69126;SDS011;56688;50.234;19.292;2023-12-20T07:23:18;14.20;;;7.90;;
69126;SDS011;56688;50.234;19.292;2023-12-20T07:25:46;14.10;;;9.00;;
69126;SDS011;56688;50.234;19.292;2023-12-20T07:28:13;9.70;;;6.90;;
69126;SDS011;56688;50.234;19.292;2023-12-20T07:30:40;14.80;;;8.90;;
69126;SDS011;56688;50.234;19.292;2023-12-20T07:33:07;12.60;;;7.90;;
69126;SDS011;56688;50.234;19.292;2023-12-20T07:35:36;16.30;;;9.10;;
69126;SDS011;56688;50.234;19.292;2023-12-20T07:38:04;19.00;;;9.50;;
69126;SDS011;56688;50.234;19.292;2023-12-20T07:40:30;14.30;;;8.90;;
69126;SDS011;56688;50.234;19.292;2023-12-20T07:42:57;18.10;;;9.30;;
69126;SDS011;56688;50.234;19.292;2023-12-20T07:45:25;18.40;;;11.00;;
69126;SDS011;56688;50.234;19.292;2023-12-20T07:47:51;17.10;;;11.10;;
69126;SDS011;56688;50.234;19.292;2023-12-20T07:50:18;15.90;;;10.00;;
69126;SDS011;56688;50.234;19.292;2023-12-20T07:52:45;14.60;;;9.70;;
69126;SDS011;56688;50.234;19.292;2023-12-20T07:55:12;18.10;;;10.50;;
69126;SDS011;56688;50.234;19.292;2023-12-20T07:57:39;19.00;;;11.40;;
69126;SDS011;56688;50.234;19.292;2023-12-20T08:00:06;16.20;;;10.30;;
69126;SDS011;56688;50.234;19.292;2023-12-20T08:02:34;20.40;;;10.60;;
69126;SDS011;56688;50.234;19.292;2023-12-20T08:05:00;13.20;;;7.70;;
69126;SDS011;56688;50.234;19.292;2023-12-20T08:07:27;15.20;;;8.50;;
69126;SDS011;56688;50.234;19.292;2023-12-20T08:09:54;16.60;;;7.80;;
69126;SDS011;56688;50.234;19.292;2023-12-20T08:12:23;13.10;;;8.10;;
69126;SDS011;56688;50.234;19.292;2023-12-20T08:14:50;19.10;;;9.70;;
69126;SDS011;56688;50.234;19.292;2023-12-20T08:17:17;10.70;;;7.00;;
69126;SDS011;56688;50.234;19.292;2023-12-20T08:19:46;15.30;;;7.90;;
69126;SDS011;56688;50.234;19.292;2023-12-20T08:22:13;12.30;;;8.00;;
69126;SDS011;56688;50.234;19.292;2023-12-20T08:24:40;12.80;;;7.70;;
69126;SDS011;56688;50.234;19.292;2023-12-20T08:27:07;15.90;;;8.90;;
69126;SDS011;56688;50.234;19.292;2023-12-20T08:29:36;14.80;;;8.60;;
69126;SDS011;56688;50.234;19.292;2023-12-20T08:32:03;14.50;;;8.60;;
69126;SDS011;56688;50.234;19.292;2023-12-20T08:34:31;14.30;;;7.70;;
69126;SDS011;56688;50.234;19.292;2023-12-20T08:36:58;14.50;;;9.50;;
69126;SDS011;56688;50.234;19.292;2023-12-20T08:39:25;15.00;;;9.90;;
69126;SDS011;56688;50.234;19.292;2023-12-20T08:41:52;16.80;;;11.20;;
69126;SDS011;56688;50.234;19.292;2023-12-20T08:44:19;16.00;;;10.00;;
69126;SDS011;56688;50.234;19.292;2023-12-20T08:46:46;14.00;;;8.70;;
69126;SDS011;56688;50.234;19.292;2023-12-20T08:49:12;14.90;;;8.90;;
69126;SDS011;56688;50.234;19.292;2023-12-20T08:51:40;11.10;;;7.60;;
69126;SDS011;56688;50.234;19.292;2023-12-20T08:54:08;13.50;;;8.40;;
69126;SDS011;56688;50.234;19.292;2023-12-20T08:56:35;12.80;;;6.30;;
69126;SDS011;56688;50.234;19.292;2023-12-20T08:59:02;16.50;;;8.00;;
69126;SDS011;56688;50.234;19.292;2023-12-20T09:01:29;14.00;;;8.10;;
69126;SDS011;56688;50.234;19.292;2023-12-20T09:03:56;22.70;;;11.10;;
69126;SDS011;56688;50.234;19.292;2023-12-20T09:06:23;19.10;;;10.40;;
69126;SDS011;56688;50.234;19.292;2023-12-20T09:08:51;14.30;;;9.40;;
69126;SDS011;56688;50.234;19.292;2023-12-20T09:11:18;13.30;;;9.50;;
69126;SDS011;56688;50.234;19.292;2023-12-20T09:13:45;13.40;;;9.20;;
69126;SDS011;56688;50.234;19.292;2023-12-20T09:16:12;13.60;;;8.00;;
69126;SDS011;56688;50.234;19.292;2023-12-20T09:18:42;14.00;;;8.30;;
69126;SDS011;56688;50.234;19.292;2023-12-20T09:21:09;14.00;;;8.30;;
69126;SDS011;56688;50.234;19.292;2023-12-20T09:23:36;12.10;;;8.10;;
69126;SDS011;56688;50.234;19.292;2023-12-20T09:26:03;16.30;;;7.70;;
69126;SDS011;56688;50.234;19.292;2023-12-20T09:28:31;11.90;;;7.90;;
69126;SDS011;56688;50.234;19.292;2023-12-20T09:31:04;14.30;;;8.80;;
69126;SDS011;56688;50.234;19.292;2023-12-20T09:33:32;12.80;;;7.90;;
69126;SDS011;56688;50.234;19.292;2023-12-20T09:36:00;10.40;;;6.60;;
69126;SDS011;56688;50.234;19.292;2023-12-20T09:38:27;13.50;;;7.90;;
69126;SDS011;56688;50.234;19.292;2023-12-20T09:40:55;13.60;;;8.10;;
69126;SDS011;56688;50.234;19.292;2023-12-20T09:43:23;12.90;;;8.70;;
69126;SDS011;56688;50.234;19.292;2023-12-20T09:45:53;14.80;;;10.00;;
69126;SDS011;56688;50.234;19.292;2023-12-20T09:48:20;16.30;;;11.50;;
69126;SDS011;56688;50.234;19.292;2023-12-20T09:50:48;13.40;;;9.70;;
69126;SDS011;56688;50.234;19.292;2023-12-20T09:53:19;25.00;;;15.70;;
69126;SDS011;56688;50.234;19.292;2023-12-20T09:55:50;17.70;;;10.20;;
69126;SDS011;56688;50.234;19.292;2023-12-20T09:58:17;11.70;;;7.50;;
69126;SDS011;56688;50.234;19.292;2023-12-20T10:00:45;11.70;;;8.30;;
69126;SDS011;56688;50.234;19.292;2023-12-20T10:03:12;14.90;;;9.70;;
69126;SDS011;56688;50.234;19.292;2023-12-20T10:05:44;13.90;;;9.70;;
69126;SDS011;56688;50.234;19.292;2023-12-20T10:08:11;14.40;;;8.70;;
69126;SDS011;56688;50.234;19.292;2023-12-20T10:10:38;13.40;;;9.10;;
69126;SDS011;56688;50.234;19.292;2023-12-20T10:13:13;15.30;;;9.90;;
69126;SDS011;56688;50.234;19.292;2023-12-20T10:15:41;10.30;;;6.40;;
69126;SDS011;56688;50.234;19.292;2023-12-20T10:18:09;13.50;;;8.90;;
69126;SDS011;56688;50.234;19.292;2023-12-20T10:20:40;14.50;;;9.70;;
69126;SDS011;56688;50.234;19.292;2023-12-20T10:23:08;16.60;;;10.30;;
69126;SDS011;56688;50.234;19.292;2023-12-20T10:25:36;14.10;;;9.20;;
69126;SDS011;56688;50.234;19.292;2023-12-20T10:30:48;15.70;;;10.00;;
69126;SDS011;56688;50.234;19.292;2023-12-20T10:33:24;16.30;;;10.60;;
69126;SDS011;56688;50.234;19.292;2023-12-20T10:35:53;15.90;;;10.70;;
69126;SDS011;56688;50.234;19.292;2023-12-20T10:38:20;20.70;;;12.50;;
69126;SDS011;56688;50.234;19.292;2023-12-20T10:40:48;19.30;;;11.00;;
69126;SDS011;56688;50.234;19.292;2023-12-20T10:43:20;17.40;;;11.70;;
69126;SDS011;56688;50.234;19.292;2023-12-20T10:45:49;20.40;;;11.10;;
69126;SDS011;56688;50.234;19.292;2023-12-20T10:48:16;16.20;;;10.90;;
69126;SDS011;56688;50.234;19.292;2023-12-20T10:50:43;17.70;;;10.90;;
69126;SDS011;56688;50.234;19.292;2023-12-20T10:53:11;16.60;;;10.90;;
69126;SDS011;56688;50.234;19.292;2023-12-20T10:55:39;19.20;;;12.10;;
69126;SDS011;56688;50.234;19.292;2023-12-20T10:58:08;15.80;;;10.00;;
69126;SDS011;56688;50.234;19.292;2023-12-20T11:00:39;15.90;;;10.40;;
69126;SDS011;56688;50.234;19.292;2023-12-20T11:03:08;19.00;;;11.30;;
69126;SDS011;56688;50.234;19.292;2023-12-20T11:08:20;15.40;;;9.70;;
69126;SDS011;56688;50.234;19.292;2023-12-20T11:10:56;15.10;;;9.60;;
69126;SDS011;56688;50.234;19.292;2023-12-20T11:13:34;14.50;;;9.30;;
69126;SDS011;56688;50.234;19.292;2023-12-20T11:16:04;12.60;;;8.70;;
69126;SDS011;56688;50.234;19.292;2023-12-20T11:18:32;14.30;;;8.60;;
69126;SDS011;56688;50.234;19.292;2023-12-20T11:21:00;10.30;;;7.50;;
69126;SDS011;56688;50.234;19.292;2023-12-20T11:23:30;9.90;;;6.90;;
69126;SDS011;56688;50.234;19.292;2023-12-20T11:26:01;14.20;;;8.70;;
69126;SDS011;56688;50.234;19.292;2023-12-20T11:28:29;14.90;;;9.30;;
69126;SDS011;56688;50.234;19.292;2023-12-20T11:30:58;15.70;;;9.70;;
69126;SDS011;56688;50.234;19.292;2023-12-20T11:33:30;13.10;;;7.90;;
69126;SDS011;56688;50.234;19.292;2023-12-20T11:36:02;17.70;;;9.80;;
69126;SDS011;56688;50.234;19.292;2023-12-20T11:38:37;14.30;;;8.90;;
69126;SDS011;56688;50.234;19.292;2023-12-20T11:41:06;15.70;;;9.70;;
69126;SDS011;56688;50.234;19.292;2023-12-20T11:43:36;16.00;;;9.40;;
69126;SDS011;56688;50.234;19.292;2023-12-20T11:46:04;20.80;;;9.90;;
69126;SDS011;56688;50.234;19.292;2023-12-20T11:48:34;11.50;;;8.10;;
69126;SDS011;56688;50.234;19.292;2023-12-20T11:51:02;16.70;;;9.00;;
69126;SDS011;56688;50.234;19.292;2023-12-20T11:53:30;14.30;;;9.20;;
69126;SDS011;56688;50.234;19.292;2023-12-20T11:56:00;16.80;;;9.30;;
69126;SDS011;56688;50.234;19.292;2023-12-20T11:58:29;14.80;;;10.00;;
69126;SDS011;56688;50.234;19.292;2023-12-20T12:00:57;13.70;;;8.70;;
69126;SDS011;56688;50.234;19.292;2023-12-20T12:03:24;14.50;;;8.90;;
69126;SDS011;56688;50.234;19.292;2023-12-20T12:05:52;12.60;;;7.10;;
69126;SDS011;56688;50.234;19.292;2023-12-20T12:08:19;14.40;;;8.90;;
69126;SDS011;56688;50.234;19.292;2023-12-20T12:10:46;16.10;;;7.10;;
69126;SDS011;56688;50.234;19.292;2023-12-20T12:13:14;14.90;;;8.10;;
69126;SDS011;56688;50.234;19.292;2023-12-20T12:15:41;13.60;;;9.10;;
69126;SDS011;56688;50.234;19.292;2023-12-20T12:18:08;11.40;;;8.00;;
69126;SDS011;56688;50.234;19.292;2023-12-20T12:20:37;14.00;;;9.70;;
69126;SDS011;56688;50.234;19.292;2023-12-20T12:23:05;14.40;;;9.30;;
69126;SDS011;56688;50.234;19.292;2023-12-20T12:25:35;12.00;;;7.60;;
69126;SDS011;56688;50.234;19.292;2023-12-20T12:28:08;15.60;;;8.70;;
69126;SDS011;56688;50.234;19.292;2023-12-20T12:30:36;15.80;;;9.20;;
69126;SDS011;56688;50.234;19.292;2023-12-20T12:33:11;13.20;;;7.60;;
69126;SDS011;56688;50.234;19.292;2023-12-20T12:35:40;14.50;;;8.80;;
69126;SDS011;56688;50.234;19.292;2023-12-20T12:38:07;15.00;;;8.80;;
69126;SDS011;56688;50.234;19.292;2023-12-20T12:40:35;15.60;;;9.30;;
69126;SDS011;56688;50.234;19.292;2023-12-20T12:43:03;14.90;;;8.40;;
69126;SDS011;56688;50.234;19.292;2023-12-20T12:45:32;17.40;;;9.20;;
69126;SDS011;56688;50.234;19.292;2023-12-20T12:47:59;12.80;;;8.70;;
69126;SDS011;56688;50.234;19.292;2023-12-20T12:50:26;15.90;;;8.90;;
69126;SDS011;56688;50.234;19.292;2023-12-20T12:52:55;13.90;;;8.10;;
69126;SDS011;56688;50.234;19.292;2023-12-20T12:55:22;11.00;;;6.30;;
69126;SDS011;56688;50.234;19.292;2023-12-20T12:57:50;15.70;;;8.50;;
69126;SDS011;56688;50.234;19.292;2023-12-20T13:00:17;12.00;;;7.80;;
69126;SDS011;56688;50.234;19.292;2023-12-20T13:02:44;12.10;;;7.80;;
69126;SDS011;56688;50.234;19.292;2023-12-20T13:05:11;14.70;;;8.20;;
69126;SDS011;56688;50.234;19.292;2023-12-20T13:07:38;15.00;;;7.70;;
69126;SDS011;56688;50.234;19.292;2023-12-20T13:10:06;15.30;;;9.50;;
69126;SDS011;56688;50.234;19.292;2023-12-20T13:12:33;13.40;;;8.10;;
69126;SDS011;56688;50.234;19.292;2023-12-20T13:15:01;12.40;;;8.50;;
69126;SDS011;56688;50.234;19.292;2023-12-20T13:17:30;12.60;;;8.60;;
69126;SDS011;56688;50.234;19.292;2023-12-20T13:19:58;16.40;;;8.60;;
69126;SDS011;56688;50.234;19.292;2023-12-20T13:22:26;17.80;;;9.60;;
69126;SDS011;56688;50.234;19.292;2023-12-20T13:24:53;16.90;;;9.40;;
69126;SDS011;56688;50.234;19.292;2023-12-20T13:27:20;16.90;;;10.80;;
69126;SDS011;56688;50.234;19.292;2023-12-20T13:29:47;15.90;;;10.40;;
69126;SDS011;56688;50.234;19.292;2023-12-20T13:32:14;16.60;;;11.00;;
69126;SDS011;56688;50.234;19.292;2023-12-20T13:34:41;18.30;;;11.00;;
69126;SDS011;56688;50.234;19.292;2023-12-20T13:37:08;17.80;;;11.10;;
69126;SDS011;56688;50.234;19.292;2023-12-20T13:39:35;16.30;;;10.70;;
69126;SDS011;56688;50.234;19.292;2023-12-20T13:42:02;20.80;;;10.50;;
69126;SDS011;56688;50.234;19.292;2023-12-20T13:44:30;15.10;;;10.30;;
69126;SDS011;56688;50.234;19.292;2023-12-20T13:46:57;14.60;;;9.30;;
69126;SDS011;56688;50.234;19.292;2023-12-20T13:49:24;15.80;;;9.00;;
69126;SDS011;56688;50.234;19.292;2023-12-20T13:51:53;15.20;;;9.60;;
69126;SDS011;56688;50.234;19.292;2023-12-20T13:54:21;17.70;;;9.40;;
69126;SDS011;56688;50.234;19.292;2023-12-20T13:56:49;15.50;;;9.10;;
69126;SDS011;56688;50.234;19.292;2023-12-20T13:59:34;16.30;;;9.90;;
69126;SDS011;56688;50.234;19.292;2023-12-20T14:02:01;17.20;;;10.60;;
69126;SDS011;56688;50.234;19.292;2023-12-20T14:04:30;18.90;;;12.00;;
69126;SDS011;56688;50.234;19.292;2023-12-20T14:07:09;21.70;;;11.50;;
69126;SDS011;56688;50.234;19.292;2023-12-20T14:09:38;20.20;;;11.80;;
69126;SDS011;56688;50.234;19.292;2023-12-20T14:12:06;17.40;;;11.20;;
69126;SDS011;56688;50.234;19.292;2023-12-20T14:14:33;17.70;;;10.40;;
69126;SDS011;56688;50.234;19.292;2023-12-20T14:17:00;15.00;;;8.50;;
69126;SDS011;56688;50.234;19.292;2023-12-20T14:19:27;14.00;;;8.50;;
69126;SDS011;56688;50.234;19.292;2023-12-20T14:21:54;11.50;;;7.60;;
69126;SDS011;56688;50.234;19.292;2023-12-20T14:24:21;13.50;;;6.80;;
69126;SDS011;56688;50.234;19.292;2023-12-20T14:26:49;12.80;;;7.90;;
69126;SDS011;56688;50.234;19.292;2023-12-20T14:29:16;13.10;;;7.70;;
69126;SDS011;56688;50.234;19.292;2023-12-20T14:31:43;13.30;;;9.10;;
69126;SDS011;56688;50.234;19.292;2023-12-20T14:34:10;12.70;;;8.20;;